createdAt,value
2018-11-28T00:00:01.909Z,7.80
2018-11-28T00:02:29.925Z,7.80
2018-11-28T00:12:53.043Z,7.70
2018-11-28T00:15:20.656Z,7.70
2018-11-28T00:17:48.774Z,7.70
2018-11-28T00:20:18.124Z,7.70
2018-11-28T00:25:14.065Z,7.60
2018-11-28T00:27:41.770Z,7.60
2018-11-28T00:32:41.614Z,7.60
2018-11-28T00:35:11.024Z,7.60
2018-11-28T00:37:38.964Z,7.50
2018-11-28T00:42:35.072Z,7.50
2018-11-28T00:45:03.112Z,7.50
2018-11-28T00:47:30.878Z,7.50
2018-11-28T00:54:53.649Z,7.40
2018-11-28T00:57:21.209Z,7.40
2018-11-28T00:59:48.804Z,7.30
2018-11-28T01:04:44.088Z,7.40
2018-11-28T01:09:39.346Z,7.30
2018-11-28T01:12:07.000Z,7.30
2018-11-28T01:19:29.573Z,7.30
2018-11-28T01:24:24.750Z,7.30
2018-11-28T01:26:52.313Z,7.30
2018-11-28T01:31:47.341Z,7.30
2018-11-28T01:34:14.885Z,7.30
2018-11-28T01:36:42.525Z,7.30
2018-11-28T01:39:10.133Z,7.30
2018-11-28T01:41:37.727Z,7.30
2018-11-28T01:44:05.789Z,7.30
2018-11-28T01:46:33.354Z,7.30
2018-11-28T01:51:28.339Z,7.30
2018-11-28T01:53:55.933Z,7.20
2018-11-28T01:56:23.505Z,7.30
2018-11-28T01:58:51.036Z,7.30
2018-11-28T02:01:18.579Z,7.30
2018-11-28T02:03:46.115Z,7.30
2018-11-28T02:13:36.216Z,7.30
2018-11-28T02:18:31.398Z,7.30
2018-11-28T02:20:58.955Z,7.30
2018-11-28T02:25:53.956Z,7.40
2018-11-28T02:28:21.586Z,7.30
2018-11-28T02:35:43.991Z,7.30
2018-11-28T02:38:11.530Z,7.30
2018-11-28T02:40:39.107Z,7.30
2018-11-28T02:50:29.097Z,7.30
2018-11-28T02:52:56.693Z,7.20
2018-11-28T02:57:51.859Z,7.20
2018-11-28T03:00:21.606Z,7.20
2018-11-28T03:02:49.216Z,7.20
2018-11-28T03:07:44.371Z,7.10
2018-11-28T03:10:22.212Z,7.10
2018-11-28T03:12:49.799Z,7.10
2018-11-28T03:20:14.908Z,7.00
2018-11-28T03:25:10.753Z,7.00
2018-11-28T03:27:38.391Z,7.00
2018-11-28T03:35:07.197Z,7.00
2018-11-28T03:37:34.809Z,7.00
2018-11-28T03:40:02.425Z,7.00
2018-11-28T03:42:29.986Z,7.00
2018-11-28T03:44:57.581Z,6.90
2018-11-28T03:54:47.613Z,6.90
2018-11-28T03:59:42.681Z,6.80
2018-11-28T04:16:55.174Z,6.70
2018-11-28T04:19:22.755Z,6.70
2018-11-28T04:21:50.361Z,6.60
2018-11-28T04:31:40.447Z,6.60
2018-11-28T04:34:07.970Z,6.60
2018-11-28T04:36:35.509Z,6.60
2018-11-28T04:39:04.266Z,6.50
2018-11-28T04:43:59.381Z,6.60
2018-11-28T04:46:26.957Z,6.50
2018-11-28T04:48:54.519Z,6.50
2018-11-28T04:53:49.786Z,6.50
2018-11-28T04:56:17.431Z,6.50
2018-11-28T05:01:12.576Z,6.40
2018-11-28T05:06:07.517Z,6.40
2018-11-28T05:11:02.514Z,6.40
2018-11-28T05:13:30.073Z,6.40
2018-11-28T05:15:57.641Z,6.40
2018-11-28T05:23:20.255Z,6.40
2018-11-28T05:28:15.477Z,6.40
2018-11-28T05:30:43.015Z,6.40
2018-11-28T05:33:10.524Z,6.40
2018-11-28T05:38:10.787Z,6.40
2018-11-28T05:40:38.373Z,6.40
2018-11-28T05:48:00.937Z,6.40
2018-11-28T05:50:28.485Z,6.30
2018-11-28T05:52:56.076Z,6.30
2018-11-28T06:00:31.349Z,6.30
2018-11-28T06:05:26.558Z,6.20
2018-11-28T06:07:54.198Z,6.20
2018-11-28T06:10:21.837Z,6.20
2018-11-28T06:12:49.481Z,6.20
2018-11-28T06:17:44.618Z,6.10
2018-11-28T06:25:16.007Z,6.00
2018-11-28T06:30:07.515Z,6.00
2018-11-28T06:32:35.163Z,6.00
2018-11-28T06:35:02.758Z,6.00
2018-11-28T06:37:30.577Z,5.90
2018-11-28T06:39:58.286Z,5.90
2018-11-28T06:42:25.930Z,5.90
2018-11-28T06:47:23.365Z,5.80
2018-11-28T06:49:50.988Z,5.80
2018-11-28T06:54:46.150Z,5.80
2018-11-28T06:57:13.828Z,5.80
2018-11-28T07:02:09.134Z,5.80
2018-11-28T07:04:36.760Z,5.80
2018-11-28T07:09:31.998Z,5.90
2018-11-28T07:11:59.550Z,5.80
2018-11-28T07:16:54.684Z,5.90
2018-11-28T07:19:22.345Z,5.90
2018-11-28T07:29:12.589Z,5.90
2018-11-28T07:31:40.230Z,5.90
2018-11-28T07:34:07.798Z,6.00
2018-11-28T07:36:35.414Z,6.00
2018-11-28T07:39:03.636Z,6.00
2018-11-28T07:43:58.707Z,6.00
2018-11-28T07:46:26.265Z,6.00
2018-11-28T07:48:53.937Z,5.90
2018-11-28T07:51:21.679Z,5.90
2018-11-28T07:53:49.293Z,6.10
2018-11-28T08:01:11.930Z,6.10
2018-11-28T08:03:39.550Z,6.10
2018-11-28T08:08:37.435Z,6.00
2018-11-28T08:11:07.180Z,6.10
2018-11-28T08:18:30.095Z,6.20
2018-11-28T08:20:57.774Z,6.20
2018-11-28T08:23:25.329Z,6.20
2018-11-28T08:33:15.585Z,6.40
2018-11-28T08:38:10.862Z,6.40
2018-11-28T08:40:38.533Z,6.50
2018-11-28T08:43:06.400Z,6.50
2018-11-28T08:45:34.261Z,6.50
2018-11-28T08:48:01.793Z,6.50
2018-11-28T08:50:34.902Z,6.50
2018-11-28T09:02:54.182Z,6.60
2018-11-28T09:05:21.788Z,6.60
2018-11-28T09:07:49.494Z,6.60
2018-11-28T09:10:18.158Z,6.70
2018-11-28T09:12:46.229Z,6.60
2018-11-28T09:15:15.987Z,6.70
2018-11-28T09:17:43.635Z,6.70
2018-11-28T09:20:12.420Z,6.70
2018-11-28T09:22:40.132Z,6.70
2018-11-28T09:37:27.718Z,6.80
2018-11-28T09:44:50.169Z,6.90
2018-11-28T09:47:17.750Z,6.90
2018-11-28T09:49:45.412Z,6.90
2018-11-28T09:57:08.063Z,6.90
2018-11-28T09:59:35.769Z,6.90
2018-11-28T10:02:03.421Z,6.90
2018-11-28T10:04:31.016Z,6.90
2018-11-28T10:06:58.629Z,6.90
2018-11-28T10:09:26.246Z,7.00
2018-11-28T10:11:53.859Z,7.00
2018-11-28T10:16:49.499Z,7.10
2018-11-28T10:19:16.498Z,7.10
2018-11-28T10:21:44.133Z,7.10
2018-11-28T10:24:11.679Z,7.10
2018-11-28T10:26:39.382Z,7.10
2018-11-28T10:29:07.034Z,7.10
2018-11-28T10:31:34.872Z,7.10
2018-11-28T10:34:02.492Z,7.20
2018-11-28T10:36:30.157Z,7.20
2018-11-28T10:38:57.758Z,7.30
2018-11-28T10:43:52.902Z,7.30
2018-11-28T10:46:20.508Z,7.40
2018-11-28T10:51:19.596Z,7.40
2018-11-28T10:53:47.159Z,7.40
2018-11-28T11:01:15.156Z,7.50
2018-11-28T11:03:58.076Z,7.50
2018-11-28T11:06:31.377Z,7.50
2018-11-28T11:16:39.684Z,7.50
2018-11-28T11:19:07.373Z,7.50
2018-11-28T11:21:35.001Z,7.50
2018-11-28T11:24:02.613Z,7.50
2018-11-28T11:26:30.276Z,7.60
2018-11-28T11:28:57.967Z,7.60
2018-11-28T11:31:25.660Z,7.60
2018-11-28T11:33:53.693Z,7.60
2018-11-28T11:41:16.437Z,7.60
2018-11-28T11:51:06.681Z,7.70
2018-11-28T11:53:34.247Z,7.70
2018-11-28T11:56:01.945Z,7.70
2018-11-28T11:58:29.523Z,7.70
2018-11-28T12:03:24.855Z,7.70
2018-11-28T12:05:55.035Z,7.80
2018-11-28T12:10:50.534Z,7.70
2018-11-28T12:13:18.112Z,7.80
2018-11-28T12:18:13.365Z,7.80
2018-11-28T12:23:09.573Z,7.70
2018-11-28T12:28:05.809Z,7.80
2018-11-28T12:33:00.858Z,7.70
2018-11-28T12:35:28.446Z,7.70
2018-11-28T12:37:56.108Z,7.70
2018-11-28T12:40:23.714Z,7.70
2018-11-28T12:42:52.046Z,7.70
2018-11-28T12:45:20.517Z,7.70
2018-11-28T12:47:48.840Z,7.70
2018-11-28T12:50:19.813Z,7.70
2018-11-28T12:52:47.475Z,7.70
2018-11-28T12:55:15.673Z,7.70
2018-11-28T12:57:43.254Z,7.70
2018-11-28T13:00:16.736Z,7.70
2018-11-28T13:02:44.346Z,7.70
2018-11-28T13:05:15.148Z,7.70
2018-11-28T13:07:42.720Z,7.70
2018-11-28T13:10:14.608Z,7.70
2018-11-28T13:12:42.577Z,7.70
2018-11-28T13:15:14.500Z,7.70
2018-11-28T13:17:42.078Z,7.60
2018-11-28T13:20:11.153Z,7.60
2018-11-28T13:22:38.846Z,7.60
2018-11-28T13:25:10.141Z,7.60
2018-11-28T13:27:37.783Z,7.60
2018-11-28T13:30:11.017Z,7.60
2018-11-28T13:32:38.826Z,7.60
2018-11-28T13:35:06.422Z,7.60
2018-11-28T13:37:34.147Z,7.60
2018-11-28T13:40:01.762Z,7.60
2018-11-28T13:42:29.431Z,7.60
2018-11-28T13:44:56.987Z,7.60
2018-11-28T13:47:25.233Z,7.60
2018-11-28T13:49:52.821Z,7.60
2018-11-28T13:52:21.085Z,7.60
2018-11-28T13:55:37.415Z,7.60
2018-11-28T13:57:16.415Z,7.60
2018-11-28T13:59:44.153Z,7.60
2018-11-28T14:02:11.851Z,7.50
2018-11-28T14:04:39.445Z,7.70
2018-11-28T14:07:06.989Z,7.70
2018-11-28T14:09:34.535Z,7.70
2018-11-28T14:12:02.086Z,7.60
2018-11-28T14:14:29.675Z,7.60
2018-11-28T14:19:24.827Z,7.60
2018-11-28T14:21:52.594Z,7.60
2018-11-28T14:26:47.773Z,7.60
2018-11-28T14:29:15.454Z,7.60
2018-11-28T14:31:43.325Z,7.60
2018-11-28T14:36:38.461Z,7.60
2018-11-28T14:39:08.177Z,7.60
2018-11-28T14:44:03.559Z,7.50
2018-11-28T14:46:31.417Z,7.50
2018-11-28T14:53:54.653Z,7.40
2018-11-28T14:56:22.348Z,7.40
2018-11-28T14:58:50.170Z,7.40
2018-11-28T15:03:45.877Z,7.30
2018-11-28T15:06:18.594Z,7.20
2018-11-28T15:13:42.208Z,7.20
2018-11-28T15:16:09.898Z,7.20
2018-11-28T15:18:37.604Z,7.10
2018-11-28T15:21:06.802Z,7.20
2018-11-28T15:23:34.565Z,7.10
2018-11-28T15:30:57.546Z,7.10
2018-11-28T15:33:25.188Z,7.10
2018-11-28T15:38:20.432Z,7.10
2018-11-28T15:40:48.049Z,7.10
2018-11-28T15:43:15.674Z,7.10
2018-11-28T15:50:38.444Z,7.10
2018-11-28T15:53:06.298Z,7.10
2018-11-28T15:55:33.986Z,7.10
2018-11-28T16:00:29.172Z,7.10
2018-11-28T16:02:56.882Z,7.10
2018-11-28T16:05:24.524Z,7.00
2018-11-28T16:07:52.153Z,7.00
2018-11-28T16:10:25.301Z,7.00
2018-11-28T16:12:52.901Z,7.00
2018-11-28T16:15:31.934Z,7.00
2018-11-28T16:17:59.564Z,7.00
2018-11-28T16:20:27.117Z,7.00
2018-11-28T16:22:54.754Z,7.00
2018-11-28T16:25:22.409Z,7.00
2018-11-28T16:30:17.583Z,7.00
2018-11-28T16:35:15.426Z,7.00
2018-11-28T16:40:15.695Z,7.00
2018-11-28T16:42:43.359Z,7.10
2018-11-28T16:45:19.738Z,7.00
2018-11-28T16:47:48.009Z,7.00
2018-11-28T16:50:16.221Z,7.00
2018-11-28T16:52:43.936Z,7.00
2018-11-28T16:55:13.786Z,7.00
2018-11-28T16:57:42.685Z,7.00
2018-11-28T17:00:11.999Z,7.10
2018-11-28T17:14:59.799Z,7.20
2018-11-28T17:22:23.111Z,7.20
2018-11-28T17:24:50.730Z,7.10
2018-11-28T17:27:18.318Z,7.10
2018-11-28T17:29:45.878Z,7.10
2018-11-28T17:34:40.942Z,7.20
2018-11-28T17:39:36.275Z,7.10
2018-11-28T17:42:04.126Z,7.10
2018-11-28T17:51:55.472Z,7.10
2018-11-28T17:56:50.600Z,7.10
2018-11-28T17:59:18.170Z,7.10
2018-11-28T18:14:06.292Z,7.10
2018-11-28T18:21:30.933Z,7.00
2018-11-28T18:26:27.412Z,7.00
2018-11-28T18:28:55.171Z,7.00
2018-11-28T18:31:23.146Z,7.00
2018-11-28T18:33:50.965Z,6.90
2018-11-28T18:36:18.669Z,7.00
2018-11-28T18:38:46.586Z,7.00
2018-11-28T18:41:14.355Z,7.00
2018-11-28T18:46:09.567Z,7.10
2018-11-28T18:48:37.227Z,7.10
2018-11-28T18:51:05.217Z,7.10
2018-11-28T18:53:33.255Z,7.10
2018-11-28T18:58:28.645Z,7.10
2018-11-28T19:00:56.431Z,7.10
2018-11-28T19:03:24.398Z,7.10
2018-11-28T19:10:48.099Z,7.00
2018-11-28T19:15:43.975Z,7.00
2018-11-28T19:18:13.005Z,7.00
2018-11-28T19:25:50.407Z,7.00
2018-11-28T19:34:18.162Z,7.10
2018-11-28T19:36:43.558Z,7.00
2018-11-28T19:39:11.353Z,7.00
2018-11-28T19:41:39.864Z,7.10
2018-11-28T19:44:07.967Z,7.00
2018-11-28T19:51:31.863Z,7.00
2018-11-28T19:53:59.707Z,7.00
2018-11-28T19:56:27.925Z,7.00
2018-11-28T19:58:56.813Z,7.00
2018-11-28T20:01:25.152Z,7.00
2018-11-28T20:06:22.834Z,7.00
2018-11-28T20:13:48.520Z,6.90
2018-11-28T20:18:46.652Z,6.90
2018-11-28T20:21:14.901Z,6.90
2018-11-28T20:23:42.906Z,6.90
2018-11-28T20:28:39.582Z,6.90
2018-11-28T20:33:35.516Z,6.90
2018-11-28T20:36:03.459Z,6.90
2018-11-28T20:38:33.157Z,6.90
2018-11-28T20:41:00.798Z,6.90
2018-11-28T20:43:28.515Z,6.90
2018-11-28T20:45:56.189Z,6.80
2018-11-28T20:55:48.214Z,6.80
2018-11-28T21:05:38.935Z,6.80
2018-11-28T21:13:09.148Z,6.90
2018-11-28T21:15:36.829Z,6.90
2018-11-28T21:18:05.178Z,6.90
2018-11-28T21:20:33.013Z,6.90
2018-11-28T21:23:05.607Z,6.90
2018-11-28T21:25:34.911Z,6.80
2018-11-28T21:30:30.551Z,6.90
2018-11-28T21:32:58.309Z,6.80
2018-11-28T21:35:29.877Z,6.80
2018-11-28T21:40:25.536Z,6.90
2018-11-28T21:42:53.365Z,6.90
2018-11-28T21:45:23.214Z,6.90
2018-11-28T21:50:19.420Z,6.90
2018-11-28T21:55:16.975Z,7.00
2018-11-28T22:00:17.654Z,7.00
2018-11-28T22:02:47.128Z,7.00
2018-11-28T22:05:16.557Z,7.00
2018-11-28T22:17:41.835Z,7.00
2018-11-28T22:22:38.243Z,6.90
2018-11-28T22:25:12.397Z,6.90
2018-11-28T22:27:40.161Z,6.90
2018-11-28T22:30:10.945Z,6.90
2018-11-28T22:32:39.274Z,6.90
2018-11-28T22:40:13.647Z,6.80
2018-11-28T22:42:42.062Z,6.80
2018-11-28T22:45:12.637Z,6.80
2018-11-28T22:47:41.655Z,6.80
2018-11-28T22:50:11.906Z,6.80
2018-11-28T22:52:39.638Z,6.80
2018-11-28T22:55:10.349Z,6.80
2018-11-28T22:57:38.676Z,6.80
2018-11-28T23:10:09.675Z,6.90
2018-11-28T23:20:00.624Z,6.90
2018-11-28T23:22:28.437Z,6.90
2018-11-28T23:24:55.994Z,6.70
2018-11-28T23:29:51.458Z,6.80
2018-11-28T23:32:19.396Z,6.80
2018-11-28T23:34:47.405Z,6.80
2018-11-28T23:37:15.153Z,6.80
2018-11-28T23:39:42.783Z,6.70
2018-11-28T23:42:10.822Z,6.70
2018-11-28T23:44:38.455Z,6.80
2018-11-28T23:47:06.201Z,6.70
2018-11-28T23:49:34.004Z,6.70
2018-11-28T23:52:01.671Z,6.70
2018-11-28T23:54:29.545Z,6.70
2018-11-28T23:56:57.334Z,6.70
2018-11-28T23:59:24.962Z,6.70
